createdAt,value
2024-02-13T00:00:43.010Z,1.00
2024-02-13T00:03:10.913Z,1.10
2024-02-13T00:05:40.481Z,1.10
2024-02-13T00:08:07.831Z,1.10
2024-02-13T00:10:34.566Z,1.10
2024-02-13T00:13:01.063Z,1.20
2024-02-13T00:15:27.542Z,1.00
2024-02-13T00:17:54.076Z,0.50
2024-02-13T00:20:20.950Z,1.20
2024-02-13T00:22:51.057Z,1.00
2024-02-13T00:25:19.567Z,1.00
2024-02-13T00:27:46.377Z,0.90
2024-02-13T00:30:13.711Z,1.00
2024-02-13T00:32:40.499Z,0.90
2024-02-13T00:35:09.998Z,1.10
2024-02-13T00:37:38.077Z,1.20
2024-02-13T00:40:11.169Z,0.80
2024-02-13T00:42:38.035Z,0.90
2024-02-13T00:45:08.570Z,1.00
2024-02-13T00:47:35.701Z,1.40
2024-02-13T00:50:03.010Z,1.20
2024-02-13T00:52:29.867Z,1.30
2024-02-13T00:54:57.500Z,0.90
2024-02-13T00:57:25.423Z,0.90
2024-02-13T00:59:52.277Z,1.00
2024-02-13T01:02:19.098Z,1.40
2024-02-13T01:04:45.800Z,1.10
2024-02-13T01:07:12.338Z,1.00
2024-02-13T01:09:38.828Z,1.00
2024-02-13T01:12:05.421Z,0.90
2024-02-13T01:14:32.510Z,0.90
2024-02-13T01:16:59.194Z,1.10
2024-02-13T01:19:25.835Z,1.10
2024-02-13T01:21:52.393Z,1.10
2024-02-13T01:24:18.854Z,1.10
2024-02-13T01:26:46.137Z,1.00
2024-02-13T01:31:39.822Z,0.90
2024-02-13T01:36:40.776Z,0.80
2024-02-13T01:39:07.300Z,1.20
2024-02-13T01:41:33.878Z,1.50
2024-02-13T01:44:01.115Z,1.10
2024-02-13T01:46:29.869Z,1.70
2024-02-13T01:49:00.004Z,1.30
2024-02-13T01:51:30.761Z,1.00
2024-02-13T01:54:02.915Z,1.10
2024-02-13T01:56:32.108Z,1.00
2024-02-13T01:58:58.877Z,1.10
2024-02-13T02:01:28.625Z,1.10
2024-02-13T02:03:59.853Z,1.40
2024-02-13T02:06:27.171Z,1.30
2024-02-13T02:08:54.419Z,1.20
2024-02-13T02:11:21.698Z,1.20
2024-02-13T02:13:48.438Z,1.00
2024-02-13T02:16:14.895Z,1.00
2024-02-13T02:18:42.373Z,1.30
2024-02-13T02:21:09.249Z,1.20
2024-02-13T02:23:36.257Z,1.20
2024-02-13T02:26:04.198Z,1.20
2024-02-13T02:28:31.086Z,0.80
2024-02-13T02:30:57.544Z,0.70
2024-02-13T02:33:24.207Z,0.80
2024-02-13T02:35:51.000Z,1.10
2024-02-13T02:38:17.854Z,0.70
2024-02-13T02:40:45.165Z,1.00
2024-02-13T02:43:11.664Z,1.00
2024-02-13T02:45:38.227Z,1.30
2024-02-13T02:48:05.082Z,1.30
2024-02-13T02:50:31.626Z,1.20
2024-02-13T02:52:59.061Z,1.20
2024-02-13T02:55:25.555Z,0.80
2024-02-13T02:57:54.372Z,0.90
2024-02-13T03:00:22.209Z,1.30
2024-02-13T03:05:17.912Z,1.20
2024-02-13T03:07:47.739Z,0.60
2024-02-13T03:10:15.106Z,0.70
2024-02-13T03:12:42.135Z,0.90
2024-02-13T03:15:09.562Z,1.60
2024-02-13T03:17:40.253Z,1.10
2024-02-13T03:20:12.070Z,1.10
2024-02-13T03:22:39.603Z,1.10
2024-02-13T03:25:06.825Z,1.30
2024-02-13T03:27:33.416Z,1.30
2024-02-13T03:29:59.865Z,1.30
2024-02-13T03:32:27.225Z,1.60
2024-02-13T03:37:21.278Z,0.90
2024-02-13T03:39:48.664Z,1.40
2024-02-13T03:42:17.144Z,1.20
2024-02-13T03:44:43.987Z,1.20
2024-02-13T03:47:10.516Z,1.20
2024-02-13T03:49:37.177Z,1.00
2024-02-13T03:52:04.442Z,1.00
2024-02-13T03:54:31.020Z,1.20
2024-02-13T03:56:58.221Z,1.00
2024-02-13T03:59:24.805Z,1.40
2024-02-13T04:01:51.440Z,1.10
2024-02-13T04:04:17.876Z,1.20
2024-02-13T04:06:44.376Z,1.10
2024-02-13T04:09:11.778Z,1.60
2024-02-13T04:11:38.566Z,1.40
2024-02-13T04:14:05.071Z,1.30
2024-02-13T04:16:31.847Z,1.20
2024-02-13T04:19:00.302Z,1.30
2024-02-13T04:21:27.036Z,1.20
2024-02-13T04:23:53.695Z,1.80
2024-02-13T04:26:30.533Z,1.50
2024-02-13T04:29:03.269Z,1.50
2024-02-13T04:31:29.922Z,1.20
2024-02-13T04:33:56.947Z,1.40
2024-02-13T04:36:24.322Z,1.10
2024-02-13T04:38:51.093Z,1.40
2024-02-13T04:41:19.601Z,1.30
2024-02-13T04:43:46.388Z,1.20
2024-02-13T04:46:13.202Z,1.00
2024-02-13T04:48:40.230Z,0.80
2024-02-13T04:51:07.069Z,1.00
2024-02-13T04:53:34.071Z,1.00
2024-02-13T04:56:00.834Z,1.20
2024-02-13T04:58:34.131Z,1.40
2024-02-13T05:01:06.379Z,1.30
2024-02-13T05:03:48.752Z,1.50
2024-02-13T05:06:34.617Z,1.30
2024-02-13T05:09:01.238Z,1.30
2024-02-13T05:11:27.686Z,1.40
2024-02-13T05:13:56.961Z,1.20
2024-02-13T05:16:28.062Z,1.10
2024-02-13T05:18:55.507Z,0.90
2024-02-13T05:23:50.286Z,1.30
2024-02-13T05:26:21.523Z,1.20
2024-02-13T05:28:51.683Z,1.10
2024-02-13T05:31:20.320Z,1.20
2024-02-13T05:33:47.140Z,1.00
2024-02-13T05:36:13.796Z,1.50
2024-02-13T05:38:49.467Z,1.40
2024-02-13T05:41:16.879Z,1.00
2024-02-13T05:43:44.029Z,1.30
2024-02-13T05:46:10.707Z,1.00
2024-02-13T05:48:37.428Z,1.30
2024-02-13T05:51:10.297Z,1.00
2024-02-13T05:53:36.860Z,0.60
2024-02-13T05:56:05.338Z,0.80
2024-02-13T05:58:32.724Z,1.00
2024-02-13T06:00:59.493Z,0.90
2024-02-13T06:03:26.532Z,1.30
2024-02-13T06:05:55.603Z,1.00
2024-02-13T06:08:22.893Z,1.10
2024-02-13T06:10:49.484Z,1.20
2024-02-13T06:13:16.003Z,0.80
2024-02-13T06:15:42.701Z,1.00
2024-02-13T06:18:09.795Z,1.00
2024-02-13T06:20:37.240Z,1.20
2024-02-13T06:25:31.663Z,4.30
2024-02-13T06:27:58.332Z,5.20
2024-02-13T06:30:24.978Z,10.60
2024-02-13T06:32:53.242Z,13.10
2024-02-13T06:35:20.062Z,17.20
2024-02-13T06:37:47.723Z,22.50
2024-02-13T06:40:14.820Z,19.80
2024-02-13T06:42:41.835Z,11.70
2024-02-13T06:45:11.567Z,7.20
2024-02-13T06:47:39.084Z,6.30
2024-02-13T06:50:13.313Z,7.30
2024-02-13T06:52:41.575Z,7.30
2024-02-13T07:00:12.852Z,4.40
2024-02-13T07:02:40.266Z,5.10
2024-02-13T07:05:07.523Z,4.80
2024-02-13T07:07:42.243Z,3.70
2024-02-13T07:10:14.172Z,3.10
2024-02-13T07:12:40.786Z,2.90
2024-02-13T07:15:08.388Z,3.70
2024-02-13T07:17:45.193Z,3.00
2024-02-13T07:20:20.326Z,2.60
2024-02-13T07:22:47.374Z,2.50
2024-02-13T07:25:16.458Z,2.60
2024-02-13T07:27:43.448Z,2.40
2024-02-13T07:30:12.785Z,2.30
2024-02-13T07:32:41.050Z,3.00
2024-02-13T07:35:08.214Z,2.90
2024-02-13T07:37:34.819Z,3.20
2024-02-13T07:40:02.573Z,2.70
2024-02-13T07:42:30.259Z,3.10
2024-02-13T07:44:58.433Z,2.50
2024-02-13T07:47:28.901Z,2.80
2024-02-13T07:49:56.174Z,2.50
2024-02-13T07:52:22.890Z,3.00
2024-02-13T07:54:49.714Z,3.10
2024-02-13T07:57:17.463Z,3.30
2024-02-13T07:59:44.860Z,3.10
2024-02-13T08:02:12.100Z,3.70
2024-02-13T08:04:38.847Z,3.50
2024-02-13T08:07:05.652Z,3.00
2024-02-13T08:09:35.340Z,4.00
2024-02-13T08:12:04.323Z,3.20
2024-02-13T08:14:31.994Z,3.50
2024-02-13T08:16:59.892Z,3.60
2024-02-13T08:19:27.619Z,3.00
2024-02-13T08:21:54.545Z,2.70
2024-02-13T08:24:22.340Z,2.20
2024-02-13T08:26:50.111Z,2.00
2024-02-13T08:29:17.237Z,2.40
2024-02-13T08:31:44.176Z,2.30
2024-02-13T08:34:11.440Z,1.40
2024-02-13T08:36:40.666Z,1.20
2024-02-13T08:39:07.581Z,1.80
2024-02-13T08:41:34.498Z,1.40
2024-02-13T08:44:01.493Z,1.60
2024-02-13T08:46:28.219Z,1.80
2024-02-13T08:48:55.172Z,1.70
2024-02-13T08:51:28.014Z,1.70
2024-02-13T08:53:55.046Z,1.40
2024-02-13T08:56:22.728Z,1.40
2024-02-13T08:58:53.409Z,1.40
2024-02-13T09:01:21.873Z,1.30
2024-02-13T09:03:49.793Z,1.30
2024-02-13T09:06:17.987Z,1.60
2024-02-13T09:08:46.124Z,1.90
2024-02-13T09:11:16.410Z,2.20
2024-02-13T09:13:43.516Z,2.30
2024-02-13T09:16:13.768Z,2.10
2024-02-13T09:18:42.357Z,2.90
2024-02-13T09:21:09.575Z,2.40
2024-02-13T09:23:36.591Z,2.50
2024-02-13T09:26:03.529Z,2.30
2024-02-13T09:28:30.134Z,2.70
2024-02-13T09:30:56.661Z,2.30
2024-02-13T09:33:24.666Z,2.40
2024-02-13T09:35:52.131Z,2.30
2024-02-13T09:38:19.384Z,2.50
2024-02-13T09:40:50.020Z,2.20
2024-02-13T09:43:17.186Z,2.30
2024-02-13T09:45:45.869Z,2.60
2024-02-13T09:48:24.641Z,2.50
2024-02-13T09:50:52.662Z,2.10
2024-02-13T09:53:29.154Z,2.40
2024-02-13T09:55:59.945Z,2.20
2024-02-13T09:58:27.449Z,1.90
2024-02-13T10:00:58.601Z,2.00
2024-02-13T10:03:28.644Z,2.50
2024-02-13T10:05:55.816Z,2.00
2024-02-13T10:11:07.365Z,2.10
2024-02-13T10:13:43.772Z,2.00
2024-02-13T10:16:27.640Z,1.90
2024-02-13T10:18:55.926Z,2.10
2024-02-13T10:21:27.933Z,2.40
2024-02-13T10:24:15.610Z,2.60
2024-02-13T10:26:43.016Z,2.60
2024-02-13T10:29:10.220Z,2.80
2024-02-13T10:31:38.370Z,2.70
2024-02-13T10:34:08.801Z,3.70
2024-02-13T10:36:37.524Z,3.60
2024-02-13T10:39:10.017Z,3.80
2024-02-13T10:41:42.121Z,3.90
2024-02-13T10:44:14.497Z,3.90
2024-02-13T10:46:43.715Z,5.40
2024-02-13T10:49:34.950Z,4.80
2024-02-13T10:52:02.352Z,5.00
2024-02-13T10:54:30.468Z,3.40
2024-02-13T10:56:59.030Z,3.00
2024-02-13T10:59:29.532Z,2.60
2024-02-13T11:02:00.770Z,2.60
2024-02-13T11:04:28.935Z,3.00
2024-02-13T11:06:56.242Z,3.20
2024-02-13T11:09:23.001Z,2.70
2024-02-13T11:11:49.628Z,2.80
2024-02-13T11:14:23.986Z,2.80
2024-02-13T11:17:02.220Z,2.60
2024-02-13T11:19:49.751Z,2.90
2024-02-13T11:22:17.420Z,2.40
2024-02-13T11:24:54.144Z,3.00
2024-02-13T11:27:29.436Z,2.30
2024-02-13T11:30:04.245Z,2.50
2024-02-13T11:32:37.393Z,1.70
2024-02-13T11:35:10.635Z,1.70
2024-02-13T11:37:38.268Z,2.10
2024-02-13T11:40:06.671Z,2.20
2024-02-13T11:42:34.954Z,1.50
2024-02-13T11:45:02.993Z,1.40
2024-02-13T11:47:30.171Z,1.40
2024-02-13T11:49:57.333Z,1.40
2024-02-13T11:52:24.716Z,1.90
2024-02-13T11:54:52.347Z,1.40
2024-02-13T11:57:21.001Z,1.70
2024-02-13T12:00:06.557Z,2.00
2024-02-13T12:02:34.631Z,1.60
2024-02-13T12:05:01.535Z,1.50
2024-02-13T12:07:29.162Z,1.70
2024-02-13T12:09:56.294Z,1.30
2024-02-13T12:12:25.604Z,1.40
2024-02-13T12:14:54.486Z,1.40
2024-02-13T12:17:22.124Z,1.30
2024-02-13T12:19:49.475Z,1.40
2024-02-13T12:22:18.037Z,1.00
2024-02-13T12:24:46.874Z,1.20
2024-02-13T12:27:17.924Z,1.30
2024-02-13T12:29:45.059Z,1.10
2024-02-13T12:32:19.109Z,1.00
2024-02-13T12:34:51.853Z,0.90
2024-02-13T12:37:21.176Z,1.10
2024-02-13T12:39:48.902Z,1.20
2024-02-13T12:42:18.934Z,0.90
2024-02-13T12:44:46.239Z,1.10
2024-02-13T12:47:14.829Z,1.10
2024-02-13T12:49:44.890Z,1.00
2024-02-13T12:52:15.018Z,1.10
2024-02-13T12:54:41.740Z,1.00
2024-02-13T12:59:39.438Z,1.20
2024-02-13T13:02:10.214Z,1.00
2024-02-13T13:04:37.250Z,1.30
2024-02-13T13:07:04.959Z,0.90
2024-02-13T13:09:32.459Z,1.00
2024-02-13T13:12:00.368Z,1.10
2024-02-13T13:14:29.509Z,0.90
2024-02-13T13:16:57.652Z,1.00
2024-02-13T13:19:28.620Z,1.10
2024-02-13T13:21:57.234Z,1.30
2024-02-13T13:24:24.346Z,1.30
2024-02-13T13:26:51.723Z,1.00
2024-02-13T13:29:18.855Z,1.40
2024-02-13T13:31:48.840Z,0.90
2024-02-13T13:34:24.434Z,1.10
2024-02-13T13:36:52.360Z,0.90
2024-02-13T13:39:18.966Z,1.00
2024-02-13T13:41:46.095Z,0.90
2024-02-13T13:44:15.029Z,1.30
2024-02-13T13:46:42.491Z,1.20
2024-02-13T13:49:10.801Z,1.10
2024-02-13T13:51:40.609Z,0.90
2024-02-13T13:54:07.691Z,0.70
2024-02-13T13:56:34.567Z,0.70
2024-02-13T13:59:01.194Z,0.70
2024-02-13T14:01:27.988Z,0.60
2024-02-13T14:03:56.714Z,0.60
2024-02-13T14:06:23.696Z,0.40
2024-02-13T14:08:50.337Z,0.80
2024-02-13T14:11:18.667Z,0.60
2024-02-13T14:13:45.883Z,0.80
2024-02-13T14:16:12.585Z,0.60
2024-02-13T14:18:39.705Z,0.70
2024-02-13T14:21:06.765Z,0.60
2024-02-13T14:23:33.295Z,0.60
2024-02-13T14:25:59.829Z,0.80
2024-02-13T14:28:26.290Z,0.70
2024-02-13T14:30:53.678Z,0.40
2024-02-13T14:33:21.704Z,0.80
2024-02-13T14:35:48.721Z,0.90
2024-02-13T14:38:16.912Z,1.10
2024-02-13T14:40:44.657Z,0.70
2024-02-13T14:43:14.490Z,0.80
2024-02-13T14:45:42.175Z,0.80
2024-02-13T14:48:15.016Z,0.70
2024-02-13T14:50:42.235Z,1.20
2024-02-13T14:53:10.081Z,0.70
2024-02-13T14:55:36.907Z,0.80
2024-02-13T14:58:14.575Z,1.00
2024-02-13T15:00:54.171Z,0.80
2024-02-13T15:03:26.021Z,0.30
2024-02-13T15:05:54.215Z,0.60
2024-02-13T15:08:21.392Z,0.80
2024-02-13T15:10:49.934Z,0.70
2024-02-13T15:13:17.324Z,0.60
2024-02-13T15:15:50.094Z,1.00
2024-02-13T15:18:18.053Z,0.40
2024-02-13T15:20:45.076Z,0.40
2024-02-13T15:23:13.838Z,0.60
2024-02-13T15:25:41.632Z,0.50
2024-02-13T15:28:08.542Z,0.30
2024-02-13T15:30:38.664Z,0.70
2024-02-13T15:33:06.555Z,0.40
2024-02-13T15:38:27.215Z,0.20
2024-02-13T15:41:12.549Z,0.70
2024-02-13T15:43:57.896Z,0.40
2024-02-13T15:46:43.080Z,0.40
2024-02-13T15:49:12.963Z,0.40
2024-02-13T15:51:41.317Z,0.60
2024-02-13T15:54:10.222Z,0.60
2024-02-13T15:56:37.647Z,0.30
2024-02-13T15:59:04.896Z,0.50
2024-02-13T16:01:32.297Z,0.50
2024-02-13T16:04:03.022Z,0.70
2024-02-13T16:06:29.839Z,0.40
2024-02-13T16:08:57.235Z,0.50
2024-02-13T16:11:24.514Z,0.70
2024-02-13T16:16:19.771Z,0.40
2024-02-13T16:18:49.308Z,0.50
2024-02-13T16:21:16.178Z,0.50
2024-02-13T16:23:42.924Z,0.80
2024-02-13T16:26:11.725Z,1.70
2024-02-13T16:28:38.931Z,1.10
2024-02-13T16:33:35.299Z,0.70
2024-02-13T16:36:02.221Z,0.60
2024-02-13T16:38:29.471Z,0.40
2024-02-13T16:40:55.989Z,0.50
2024-02-13T16:43:22.995Z,0.50
2024-02-13T16:45:49.891Z,0.40
2024-02-13T16:48:18.001Z,2.90
2024-02-13T16:50:44.829Z,9.40
2024-02-13T16:53:11.333Z,12.10
2024-02-13T16:55:37.807Z,7.70
2024-02-13T16:58:06.360Z,5.10
2024-02-13T17:00:33.425Z,2.10
2024-02-13T17:03:00.826Z,1.10
2024-02-13T17:05:27.797Z,0.90
2024-02-13T17:07:54.701Z,1.50
2024-02-13T17:10:21.732Z,4.70
2024-02-13T17:12:48.342Z,2.30
2024-02-13T17:15:15.043Z,1.50
2024-02-13T17:17:46.221Z,1.60
2024-02-13T17:20:14.388Z,1.20
2024-02-13T17:22:42.592Z,1.60
2024-02-13T17:25:11.396Z,1.40
2024-02-13T17:27:39.126Z,1.50
2024-02-13T17:30:06.668Z,1.70
2024-02-13T17:32:33.651Z,1.20
2024-02-13T17:35:00.515Z,1.20
2024-02-13T17:37:27.231Z,1.00
2024-02-13T17:39:53.784Z,1.20
2024-02-13T17:42:20.282Z,1.20
2024-02-13T17:44:46.941Z,0.90
2024-02-13T17:47:13.658Z,0.70
2024-02-13T17:49:41.412Z,0.70
2024-02-13T17:52:10.267Z,0.60
2024-02-13T17:54:37.221Z,0.70
2024-02-13T17:57:04.668Z,0.80
2024-02-13T17:59:31.600Z,0.80
2024-02-13T18:01:58.368Z,0.70
2024-02-13T18:04:24.928Z,0.80
2024-02-13T18:06:52.301Z,1.00
2024-02-13T18:09:19.114Z,0.80
2024-02-13T18:11:45.800Z,0.60
2024-02-13T18:14:12.548Z,1.80
2024-02-13T18:16:40.616Z,0.80
2024-02-13T18:19:08.155Z,0.40
2024-02-13T18:21:34.988Z,0.30
2024-02-13T18:24:03.659Z,0.70
2024-02-13T18:26:30.412Z,0.70
2024-02-13T18:28:57.060Z,0.80
2024-02-13T18:31:25.136Z,0.90
2024-02-13T18:33:52.208Z,0.60
2024-02-13T18:36:19.670Z,0.60
2024-02-13T18:38:46.813Z,0.60
2024-02-13T18:41:13.314Z,0.60
2024-02-13T18:43:39.793Z,0.90
2024-02-13T18:46:07.735Z,0.60
2024-02-13T18:48:34.391Z,1.20
2024-02-13T18:51:02.385Z,1.20
2024-02-13T18:53:32.337Z,0.70
2024-02-13T18:55:58.924Z,0.80
2024-02-13T18:58:25.755Z,0.70
2024-02-13T19:00:52.548Z,0.50
2024-02-13T19:03:21.416Z,0.60
2024-02-13T19:05:52.076Z,0.40
2024-02-13T19:08:21.580Z,0.20
2024-02-13T19:10:49.797Z,0.60
2024-02-13T19:13:16.848Z,0.50
2024-02-13T19:15:43.420Z,0.40
2024-02-13T19:18:14.032Z,0.60
2024-02-13T19:20:40.731Z,0.30
2024-02-13T19:23:07.951Z,0.40
2024-02-13T19:25:34.560Z,0.50
2024-02-13T19:28:01.326Z,0.30
2024-02-13T19:30:29.486Z,0.30
2024-02-13T19:32:56.730Z,0.20
2024-02-13T19:35:23.377Z,0.20
2024-02-13T19:37:52.083Z,0.20
2024-02-13T19:40:19.991Z,0.50
2024-02-13T19:42:47.132Z,0.70
2024-02-13T19:45:14.544Z,1.00
2024-02-13T19:47:41.789Z,0.90
2024-02-13T19:50:08.782Z,1.10
2024-02-13T19:52:37.343Z,1.00
2024-02-13T19:55:06.967Z,1.40
2024-02-13T19:57:35.007Z,1.30
2024-02-13T20:00:04.215Z,0.90
2024-02-13T20:02:32.407Z,0.90
2024-02-13T20:04:59.065Z,0.80
2024-02-13T20:07:25.679Z,0.90
2024-02-13T20:09:52.539Z,0.60
2024-02-13T20:12:21.371Z,0.80
2024-02-13T20:14:48.341Z,1.10
2024-02-13T20:17:16.114Z,1.50
2024-02-13T20:19:43.128Z,1.10
2024-02-13T20:22:09.692Z,1.00
2024-02-13T20:24:38.806Z,1.60
2024-02-13T20:27:05.472Z,1.30
2024-02-13T20:29:32.284Z,1.40
2024-02-13T20:31:59.731Z,1.30
2024-02-13T20:34:28.492Z,1.40
2024-02-13T20:36:58.886Z,1.70
2024-02-13T20:39:25.422Z,3.00
2024-02-13T20:41:52.273Z,3.20
2024-02-13T20:44:18.805Z,2.80
2024-02-13T20:46:45.471Z,4.90
2024-02-13T20:49:13.957Z,7.90
2024-02-13T20:51:43.692Z,9.60
2024-02-13T20:54:13.607Z,7.10
2024-02-13T20:56:40.891Z,6.20
2024-02-13T20:59:09.685Z,5.40
2024-02-13T21:01:39.464Z,4.50
2024-02-13T21:04:08.368Z,4.40
2024-02-13T21:06:36.328Z,3.80
2024-02-13T21:09:03.692Z,3.70
2024-02-13T21:11:32.140Z,3.50
2024-02-13T21:14:00.084Z,1.70
2024-02-13T21:16:34.483Z,2.40
2024-02-13T21:19:02.415Z,3.00
2024-02-13T21:21:47.977Z,2.00
2024-02-13T21:24:14.705Z,1.60
2024-02-13T21:26:41.608Z,1.90
2024-02-13T21:29:08.967Z,1.40
2024-02-13T21:31:36.252Z,1.40
2024-02-13T21:34:07.357Z,2.00
2024-02-13T21:36:37.721Z,1.70
2024-02-13T21:39:09.174Z,1.70
2024-02-13T21:41:37.064Z,1.90
2024-02-13T21:44:04.703Z,1.40
2024-02-13T21:48:58.605Z,1.90
2024-02-13T21:51:25.630Z,2.10
2024-02-13T21:53:52.182Z,2.30
2024-02-13T21:56:19.885Z,2.20
2024-02-13T21:58:46.673Z,3.10
2024-02-13T22:01:13.593Z,2.50
2024-02-13T22:03:41.798Z,2.80
2024-02-13T22:06:08.544Z,3.20
2024-02-13T22:08:36.299Z,3.10
2024-02-13T22:11:03.068Z,2.50
2024-02-13T22:13:29.754Z,2.80
2024-02-13T22:15:56.322Z,2.60
2024-02-13T22:18:25.835Z,2.50
2024-02-13T22:20:53.188Z,1.90
2024-02-13T22:23:19.790Z,2.10
2024-02-13T22:25:46.297Z,2.20
2024-02-13T22:28:13.937Z,1.00
2024-02-13T22:30:40.415Z,2.10
2024-02-13T22:33:08.370Z,1.90
2024-02-13T22:35:35.597Z,1.60
2024-02-13T22:38:04.441Z,1.60
2024-02-13T22:40:30.916Z,1.90
2024-02-13T22:42:57.364Z,2.30
2024-02-13T22:45:23.818Z,2.50
2024-02-13T22:48:02.095Z,2.00
2024-02-13T22:50:29.880Z,2.10
2024-02-13T22:55:28.098Z,1.70
2024-02-13T22:57:54.619Z,1.50
2024-02-13T23:00:42.084Z,1.20
2024-02-13T23:03:09.368Z,3.10
2024-02-13T23:05:36.640Z,1.40
2024-02-13T23:08:07.986Z,1.80
2024-02-13T23:10:34.980Z,1.40
2024-02-13T23:13:01.463Z,2.30
2024-02-13T23:15:28.110Z,1.40
2024-02-13T23:17:54.863Z,1.50
2024-02-13T23:20:22.563Z,2.60
2024-02-13T23:22:51.370Z,2.00
2024-02-13T23:25:18.644Z,1.60
2024-02-13T23:27:45.081Z,2.00
2024-02-13T23:30:12.553Z,2.20
2024-02-13T23:35:07.011Z,1.80
2024-02-13T23:37:35.269Z,1.50
2024-02-13T23:40:02.067Z,1.80
2024-02-13T23:42:28.699Z,1.70
2024-02-13T23:44:58.437Z,2.00
2024-02-13T23:47:25.162Z,1.50
2024-02-13T23:49:51.837Z,2.00
2024-02-13T23:52:18.458Z,1.90
2024-02-13T23:54:45.293Z,2.50
2024-02-13T23:57:12.066Z,1.80
2024-02-13T23:59:38.750Z,1.50
